Time;durP1;ratioP1;P1;durP2;ratioP2;P2;SDS_P1;SDS_P2;PMS_P1;PMS_P2;Temp;Humidity;BMP_temperature;BMP_pressure;BME280_temperature;BME280_humidity;BME280_pressure;Samples;Min_cycle;Max_cycle;Signal;HPM_P1;HPM_P2
2022/01/20 00:00:44;;;;;;;14.73;7.93;;;2.30;60.30;;;;;;4991828;28;20022;-82
2022/01/20 00:03:16;;;;;;;14.60;7.93;;;2.40;60.50;;;;;;4993201;28;20101;-81
2022/01/20 00:27:16;;;;;;;21.80;9.63;;;2.20;61.50;;;;;;5012323;28;20064;-82
2022/01/20 00:30:20;;;;;;;18.60;10.17;;;2.20;61.50;;;;;;4994730;28;20026;-81
2022/01/20 00:35:18;;;;;;;15.63;7.40;;;2.20;61.40;;;;;;5012929;28;20029;-82
2022/01/20 00:37:44;;;;;;;20.57;7.67;;;2.20;61.50;;;;;;5013107;28;20041;-82
2022/01/20 00:40:10;;;;;;;15.07;7.93;;;2.30;61.60;;;;;;5009509;28;20563;-81
2022/01/20 00:42:36;;;;;;;16.57;8.53;;;2.30;61.50;;;;;;4991155;28;20055;-82
2022/01/20 00:45:03;;;;;;;18.23;7.37;;;2.20;61.50;;;;;;5007538;28;20026;-82
2022/01/20 00:47:29;;;;;;;15.87;7.67;;;2.20;61.60;;;;;;5011972;28;20026;-82
2022/01/20 00:49:55;;;;;;;13.93;7.07;;;2.20;61.70;;;;;;4998503;28;20057;-81
2022/01/20 00:52:20;;;;;;;12.30;6.93;;;2.20;61.70;;;;;;4998998;28;20083;-81
2022/01/20 00:54:46;;;;;;;17.93;7.43;;;2.20;61.80;;;;;;4999014;28;20068;-81
2022/01/20 00:57:13;;;;;;;16.60;7.23;;;2.20;61.70;;;;;;4995315;28;20492;-82
2022/01/20 00:59:39;;;;;;;12.50;8.00;;;2.20;61.80;;;;;;4992511;28;20033;-81
2022/01/20 01:02:09;;;;;;;13.57;7.20;;;2.20;61.70;;;;;;4993338;28;20038;-82
2022/01/20 01:04:38;;;;;;;11.63;7.17;;;2.20;61.80;;;;;;4979209;28;20033;-81
2022/01/20 01:07:51;;;;;;;14.00;8.10;;;2.20;61.80;;;;;;4979406;28;20392;-81
2022/01/20 01:09:50;;;;;;;19.57;9.57;;;2.20;61.90;;;;;;4997281;28;20054;-81
2022/01/20 01:12:30;;;;;;;20.23;10.27;;;2.20;61.90;;;;;;4997697;28;20113;-81
2022/01/20 01:14:56;;;;;;;22.93;11.13;;;2.20;62.00;;;;;;5007157;28;20115;-81
2022/01/20 01:22:29;;;;;;;18.27;9.53;;;2.20;62.10;;;;;;5013443;28;20660;-81
2022/01/20 01:24:56;;;;;;;15.10;8.10;;;2.10;61.90;;;;;;5015945;28;20438;-81
2022/01/20 01:27:25;;;;;;;17.37;9.13;;;2.10;62.40;;;;;;5015474;28;20460;-81
2022/01/20 01:32:25;;;;;;;18.77;10.17;;;2.20;62.40;;;;;;5016078;28;20040;-81
2022/01/20 01:34:53;;;;;;;17.00;8.67;;;2.20;62.30;;;;;;4999514;28;20384;-82
2022/01/20 01:39:50;;;;;;;15.67;9.43;;;2.30;62.30;;;;;;5020349;28;20383;-81
2022/01/20 01:42:23;;;;;;;18.53;8.60;;;2.40;62.30;;;;;;4999466;28;20108;-80
2022/01/20 01:44:49;;;;;;;;;;;2.40;62.20;;;;;;4998123;28;20484;-81
2022/01/20 01:47:14;;;;;;;16.30;8.87;;;2.40;62.00;;;;;;4997415;28;19936;-80
2022/01/20 01:49:40;;;;;;;14.73;8.10;;;2.40;62.00;;;;;;4979656;28;20124;-81
2022/01/20 01:52:06;;;;;;;18.10;8.87;;;2.40;62.20;;;;;;5013798;28;20026;-81
2022/01/20 01:54:32;;;;;;;16.43;8.10;;;2.40;62.10;;;;;;5002555;28;20033;-81
2022/01/20 01:57:01;;;;;;;17.27;7.30;;;2.40;62.30;;;;;;4999084;28;20107;-81
2022/01/20 01:59:27;;;;;;;14.27;7.97;;;2.50;62.80;;;;;;5015017;28;20024;-81
2022/01/20 02:01:53;;;;;;;13.73;7.57;;;2.50;62.20;;;;;;4996968;28;20544;-81
2022/01/20 02:04:21;;;;;;;13.00;7.47;;;2.60;62.30;;;;;;4991307;28;20492;-81
2022/01/20 02:20:24;;;;;;;15.03;7.40;;;2.60;62.30;;;;;;5014264;28;20042;-81
2022/01/20 02:22:53;;;;;;;14.83;7.27;;;2.70;62.30;;;;;;4978929;28;20035;-82
2022/01/20 02:25:21;;;;;;;12.83;7.33;;;2.70;62.40;;;;;;4995026;28;20054;-81
2022/01/20 02:27:47;;;;;;;13.50;6.53;;;2.70;62.60;;;;;;4996723;28;20084;-81
2022/01/20 02:30:15;;;;;;;17.60;8.17;;;2.70;62.50;;;;;;4988984;28;20026;-81
2022/01/20 02:32:41;;;;;;;13.00;8.23;;;2.70;62.40;;;;;;4997896;28;20034;-82
2022/01/20 02:35:10;;;;;;;15.43;7.40;;;2.70;62.40;;;;;;5000109;28;20062;-81
2022/01/20 02:37:36;;;;;;;14.23;7.80;;;2.70;62.40;;;;;;5013343;28;20034;-81
2022/01/20 02:40:34;;;;;;;13.97;7.50;;;2.70;62.50;;;;;;4996236;28;20071;-82
2022/01/20 02:45:43;;;;;;;16.83;8.13;;;2.60;62.60;;;;;;5003681;28;20036;-81
2022/01/20 02:48:09;;;;;;;14.47;7.87;;;2.70;62.60;;;;;;4993374;28;20023;-82
2022/01/20 02:50:35;;;;;;;13.90;7.67;;;2.70;62.50;;;;;;4977049;28;20061;-81
2022/01/20 02:53:01;;;;;;;14.80;8.10;;;2.80;62.60;;;;;;4996036;28;20223;-81
2022/01/20 02:55:26;;;;;;;18.10;7.67;;;2.80;62.50;;;;;;5014061;28;20057;-81
2022/01/20 02:57:52;;;;;;;11.80;7.10;;;2.90;62.60;;;;;;4999073;28;20034;-81
2022/01/20 03:00:19;;;;;;;14.13;7.77;;;3.00;62.20;;;;;;4995779;28;20032;-82
2022/01/20 03:02:46;;;;;;;12.37;7.30;;;3.00;62.10;;;;;;5002763;28;20026;-82
2022/01/20 03:05:12;;;;;;;14.90;7.63;;;3.00;62.10;;;;;;4977005;28;20026;-82
2022/01/20 03:07:38;;;;;;;12.43;7.47;;;3.00;62.20;;;;;;4978813;28;20038;-82
2022/01/20 03:10:06;;;;;;;12.90;6.90;;;3.00;62.30;;;;;;4996360;28;20030;-82
2022/01/20 03:12:31;;;;;;;12.43;7.40;;;3.00;62.30;;;;;;5013767;28;20041;-82
2022/01/20 03:14:57;;;;;;;17.73;8.30;;;3.00;62.10;;;;;;4995821;28;20022;-81
2022/01/20 03:17:23;;;;;;;15.03;7.70;;;3.00;62.10;;;;;;4995966;28;20042;-82
2022/01/20 03:19:48;;;;;;;12.87;7.83;;;3.00;62.10;;;;;;4995963;28;20033;-82
2022/01/20 03:22:14;;;;;;;15.63;7.50;;;3.00;62.30;;;;;;4995679;28;20540;-82
2022/01/20 03:24:40;;;;;;;15.33;7.93;;;3.00;62.00;;;;;;5012382;28;20026;-82
2022/01/20 03:27:06;;;;;;;14.03;7.17;;;2.90;61.90;;;;;;5012368;28;20030;-82
2022/01/20 03:29:33;;;;;;;11.20;6.83;;;2.90;62.10;;;;;;5012357;28;20034;-82
2022/01/20 03:31:58;;;;;;;13.63;7.70;;;2.90;62.10;;;;;;5003516;28;20026;-82
2022/01/20 03:34:24;;;;;;;14.20;6.67;;;3.00;62.10;;;;;;4995984;28;20037;-82
2022/01/20 03:36:52;;;;;;;11.70;7.17;;;3.00;62.10;;;;;;4995943;28;20112;-81
2022/01/20 03:39:18;;;;;;;16.10;7.83;;;3.10;62.20;;;;;;5013205;28;20040;-82
2022/01/20 03:41:44;;;;;;;13.53;6.87;;;3.00;61.90;;;;;;4995443;28;20025;-82
2022/01/20 03:44:10;;;;;;;16.20;7.90;;;3.00;61.90;;;;;;4995697;28;20547;-82
2022/01/20 03:46:36;;;;;;;15.93;7.63;;;3.00;61.80;;;;;;4998925;28;20026;-82
2022/01/20 03:49:09;;;;;;;14.47;7.20;;;3.10;61.70;;;;;;5012665;28;20033;-82
2022/01/20 03:51:35;;;;;;;15.57;7.60;;;3.20;61.60;;;;;;4995359;28;20092;-82
2022/01/20 03:54:04;;;;;;;11.57;7.23;;;3.10;61.50;;;;;;4995745;28;20443;-82
2022/01/20 03:56:30;;;;;;;15.50;8.20;;;3.20;61.80;;;;;;4995327;28;20490;-82
2022/01/20 03:58:56;;;;;;;12.83;7.77;;;3.20;61.80;;;;;;5007717;28;20476;-82
2022/01/20 04:01:22;;;;;;;12.53;7.23;;;3.20;61.80;;;;;;4995323;28;20029;-82
2022/01/20 04:03:48;;;;;;;16.73;8.03;;;3.20;61.60;;;;;;4995610;28;20075;-82
2022/01/20 04:06:15;;;;;;;18.20;8.20;;;3.10;61.50;;;;;;4982126;28;20041;-82
2022/01/20 04:08:43;;;;;;;16.07;7.63;;;3.00;61.40;;;;;;4998123;28;20460;-82
2022/01/20 04:11:22;;;;;;;16.80;7.90;;;3.00;61.60;;;;;;5012635;28;20030;-82
2022/01/20 04:13:48;;;;;;;15.00;7.53;;;3.00;61.70;;;;;;5012743;28;20033;-82
2022/01/20 04:16:34;;;;;;;16.07;7.27;;;3.10;61.40;;;;;;4977992;28;20101;-82
2022/01/20 04:19:03;;;;;;;14.20;7.53;;;3.00;61.30;;;;;;4990105;28;20543;-82
2022/01/20 04:21:31;;;;;;;16.13;8.17;;;3.10;61.40;;;;;;4985362;28;20023;-82
2022/01/20 04:23:58;;;;;;;21.00;8.53;;;3.10;61.00;;;;;;4993398;28;20033;-82
2022/01/20 04:26:24;;;;;;;25.27;8.73;;;3.10;61.40;;;;;;4993422;28;20019;-82
2022/01/20 04:28:55;;;;;;;13.57;7.30;;;3.30;61.70;;;;;;4991940;28;20080;-82
2022/01/20 04:31:23;;;;;;;17.93;7.73;;;3.30;61.40;;;;;;4992661;28;20038;-82
2022/01/20 04:33:48;;;;;;;14.93;6.87;;;3.40;61.40;;;;;;4991953;28;20104;-82
2022/01/20 04:36:14;;;;;;;24.93;7.67;;;3.40;61.30;;;;;;4991714;28;20109;-82
2022/01/20 04:38:40;;;;;;;19.00;8.67;;;3.40;61.20;;;;;;4981216;28;20035;-82
2022/01/20 04:41:06;;;;;;;13.13;7.33;;;3.40;60.90;;;;;;4988696;28;20726;-82
2022/01/20 04:43:32;;;;;;;17.10;8.00;;;3.30;60.90;;;;;;4993821;28;20384;-82
2022/01/20 04:46:29;;;;;;;13.20;7.73;;;3.30;60.90;;;;;;4991797;28;20676;-82
2022/01/20 04:59:23;;;;;;;15.50;7.80;;;3.40;60.60;;;;;;4985923;28;20042;-82
2022/01/20 05:01:49;;;;;;;14.20;7.23;;;3.40;60.70;;;;;;4991398;28;20023;-82
2022/01/20 05:04:15;;;;;;;16.93;7.70;;;3.50;60.70;;;;;;4991859;28;20037;-82
2022/01/20 05:06:44;;;;;;;16.83;8.17;;;3.50;60.60;;;;;;4991299;28;20057;-82
2022/01/20 05:09:16;;;;;;;17.37;8.40;;;3.50;60.70;;;;;;4991655;28;20027;-82
2022/01/20 05:11:46;;;;;;;15.77;8.48;;;3.50;60.70;;;;;;4991169;28;20073;-82
2022/01/20 05:14:11;;;;;;;19.43;9.07;;;3.50;60.90;;;;;;4992623;28;20034;-82
2022/01/20 05:16:37;;;;;;;20.30;9.43;;;3.50;60.90;;;;;;4991381;28;20053;-82
2022/01/20 05:19:03;;;;;;;17.80;7.47;;;3.50;60.90;;;;;;4987461;28;20026;-82
2022/01/20 05:21:29;;;;;;;16.57;7.70;;;3.50;60.70;;;;;;4991704;28;20058;-82
2022/01/20 05:23:55;;;;;;;15.23;8.57;;;3.50;60.80;;;;;;4994286;28;20109;-82
2022/01/20 05:26:20;;;;;;;18.07;7.63;;;3.50;60.70;;;;;;4983010;28;20023;-82
2022/01/20 05:28:46;;;;;;;16.87;8.20;;;3.60;60.70;;;;;;4975652;28;20033;-82
2022/01/20 05:31:11;;;;;;;19.43;7.90;;;3.50;60.50;;;;;;4988813;28;20388;-82
2022/01/20 05:33:37;;;;;;;25.40;9.73;;;3.50;60.50;;;;;;4994892;28;20080;-82
2022/01/20 05:36:03;;;;;;;27.23;9.90;;;3.40;60.50;;;;;;4993754;28;20105;-82
2022/01/20 05:38:29;;;;;;;21.97;8.60;;;3.50;60.60;;;;;;4996006;28;20034;-82
2022/01/20 05:40:54;;;;;;;25.10;10.07;;;3.50;60.50;;;;;;4994587;28;20710;-81
2022/01/20 05:43:20;;;;;;;27.03;9.57;;;3.50;60.50;;;;;;4981190;28;20069;-82
2022/01/20 05:45:46;;;;;;;16.10;7.53;;;3.50;60.50;;;;;;4994317;28;20019;-82
2022/01/20 05:48:21;;;;;;;17.73;8.63;;;3.50;61.10;;;;;;4994720;28;20420;-82
2022/01/20 05:50:47;;;;;;;16.07;8.30;;;3.40;60.70;;;;;;4981815;28;20097;-82
2022/01/20 05:53:14;;;;;;;14.17;9.07;;;3.50;60.80;;;;;;4976952;28;20118;-82
2022/01/20 05:55:40;;;;;;;14.00;8.30;;;3.50;60.80;;;;;;4977575;28;20034;-82
2022/01/20 05:58:07;;;;;;;22.10;9.43;;;3.50;60.90;;;;;;4994468;28;20023;-82
2022/01/20 06:00:35;;;;;;;21.67;11.17;;;3.50;61.10;;;;;;4990582;28;20030;-82
2022/01/20 06:05:47;;;;;;;19.60;10.47;;;3.50;61.40;;;;;;4995505;28;20118;-82
2022/01/20 06:08:12;;;;;;;42.70;21.60;;;3.50;61.70;;;;;;4994042;28;20054;-82
2022/01/20 06:10:40;;;;;;;58.23;28.43;;;3.60;61.80;;;;;;4994112;28;20164;-82
2022/01/20 06:13:06;;;;;;;54.80;26.83;;;3.60;61.70;;;;;;4993851;28;20386;-82
2022/01/20 06:15:32;;;;;;;31.60;18.27;;;3.60;61.90;;;;;;5000894;28;20069;-82
2022/01/20 06:17:58;;;;;;;32.97;17.93;;;3.60;62.00;;;;;;5003042;28;20077;-82
2022/01/20 06:20:23;;;;;;;25.20;14.60;;;3.60;62.00;;;;;;4996554;28;20112;-82
2022/01/20 06:22:49;;;;;;;24.90;14.17;;;3.70;62.00;;;;;;4997518;28;20018;-82
2022/01/20 06:25:15;;;;;;;16.10;9.47;;;3.70;62.00;;;;;;4997908;28;20077;-82
2022/01/20 06:27:40;;;;;;;17.73;9.60;;;3.70;61.90;;;;;;5014840;28;20096;-82
2022/01/20 06:30:08;;;;;;;18.87;9.73;;;3.70;62.00;;;;;;4991769;28;20063;-82
2022/01/20 06:32:34;;;;;;;20.00;11.20;;;3.70;62.00;;;;;;5006439;28;20022;-82
2022/01/20 06:35:01;;;;;;;20.23;10.67;;;3.70;62.00;;;;;;4996066;28;20101;-82
2022/01/20 06:37:27;;;;;;;17.50;10.30;;;3.70;62.00;;;;;;5014609;28;20040;-82
2022/01/20 06:39:52;;;;;;;15.97;9.00;;;3.70;62.10;;;;;;5014456;28;20477;-82
2022/01/20 06:42:18;;;;;;;19.47;9.73;;;3.70;62.40;;;;;;4996529;28;20021;-82
2022/01/20 06:44:44;;;;;;;21.33;11.23;;;3.80;62.70;;;;;;5014566;28;20038;-82
2022/01/20 06:47:10;;;;;;;34.80;15.67;;;3.90;62.80;;;;;;4993635;28;20026;-82
2022/01/20 06:49:36;;;;;;;31.43;15.50;;;4.10;62.70;;;;;;5002399;28;20039;-82
2022/01/20 06:52:02;;;;;;;28.50;14.80;;;4.00;62.30;;;;;;4996764;28;20446;-82
2022/01/20 06:54:28;;;;;;;29.33;15.63;;;3.90;62.70;;;;;;4997017;28;20033;-82
2022/01/20 06:56:54;;;;;;;30.70;13.17;;;3.90;62.90;;;;;;4996787;28;20044;-81
2022/01/20 06:59:20;;;;;;;23.20;10.93;;;3.90;62.90;;;;;;4996160;28;20054;-81
2022/01/20 07:01:48;;;;;;;18.37;12.23;;;3.80;62.80;;;;;;4997493;28;20029;-82
2022/01/20 07:04:15;;;;;;;23.67;12.40;;;3.70;63.50;;;;;;5031991;28;20025;-82
2022/01/20 07:06:42;;;;;;;22.50;12.50;;;3.60;63.60;;;;;;5006672;28;20019;-82
2022/01/20 07:09:09;;;;;;;16.97;10.33;;;3.60;63.90;;;;;;4994189;28;20029;-82
2022/01/20 07:11:35;;;;;;;21.47;10.87;;;3.70;64.00;;;;;;4997563;28;20056;-83
2022/01/20 07:14:01;;;;;;;17.63;9.80;;;3.70;64.00;;;;;;5012633;28;20033;-82
2022/01/20 07:16:28;;;;;;;17.23;10.40;;;3.70;64.10;;;;;;5012012;28;20132;-82
2022/01/20 07:18:55;;;;;;;23.70;13.23;;;3.80;64.20;;;;;;5013829;28;20026;-82
2022/01/20 07:21:22;;;;;;;24.33;12.40;;;3.80;64.20;;;;;;4996031;28;20436;-82
2022/01/20 07:23:48;;;;;;;30.63;14.47;;;3.80;64.30;;;;;;4986108;28;20018;-82
2022/01/20 07:26:14;;;;;;;25.83;14.53;;;3.90;64.50;;;;;;5012382;28;20534;-82
2022/01/20 07:28:40;;;;;;;26.97;14.33;;;3.90;64.60;;;;;;5012418;28;20021;-82
2022/01/20 07:31:07;;;;;;;27.00;13.53;;;4.00;64.60;;;;;;5003870;28;20053;-82
2022/01/20 07:33:33;;;;;;;20.33;12.20;;;4.00;64.80;;;;;;5007542;28;20030;-82
2022/01/20 07:35:59;;;;;;;23.97;13.90;;;4.10;65.00;;;;;;4995682;28;20060;-82
2022/01/20 07:38:26;;;;;;;27.90;14.30;;;4.00;64.80;;;;;;5009067;28;20113;-82
2022/01/20 07:40:52;;;;;;;22.37;13.63;;;4.10;65.40;;;;;;5011933;28;20184;-82
2022/01/20 07:43:18;;;;;;;24.07;12.97;;;4.20;65.50;;;;;;5013111;28;20026;-83
2022/01/20 07:45:45;;;;;;;21.23;12.60;;;4.10;65.30;;;;;;4995381;28;20022;-82
2022/01/20 07:48:10;;;;;;;27.80;13.03;;;4.20;65.50;;;;;;4995691;28;20389;-82
2022/01/20 07:50:36;;;;;;;22.87;11.80;;;4.20;65.50;;;;;;4995502;28;20022;-82
2022/01/20 07:53:02;;;;;;;19.03;11.80;;;4.20;65.30;;;;;;4995199;28;20497;-82
2022/01/20 07:55:28;;;;;;;25.17;12.93;;;4.20;65.20;;;;;;4998449;28;20061;-82
2022/01/20 07:57:54;;;;;;;21.90;12.97;;;4.20;65.30;;;;;;4995622;28;20053;-82
2022/01/20 08:00:21;;;;;;;25.17;15.23;;;4.20;65.10;;;;;;4995350;28;20032;-82
2022/01/20 08:02:47;;;;;;;26.73;13.43;;;4.20;65.10;;;;;;5012069;28;20025;-82
2022/01/20 08:05:14;;;;;;;23.10;13.37;;;4.10;65.30;;;;;;5012885;28;20485;-82
2022/01/20 08:07:40;;;;;;;21.27;13.10;;;4.10;65.40;;;;;;4995501;28;20038;-82
2022/01/20 08:10:06;;;;;;;28.97;14.43;;;4.10;65.40;;;;;;4995288;28;20485;-82
2022/01/20 08:12:32;;;;;;;30.53;17.37;;;4.20;65.60;;;;;;4986408;28;20023;-82
2022/01/20 08:14:59;;;;;;;23.53;13.90;;;4.20;65.80;;;;;;4987063;28;20038;-82
2022/01/20 08:17:26;;;;;;;26.33;14.50;;;4.20;65.80;;;;;;5012767;28;20058;-82
2022/01/20 08:19:52;;;;;;;22.07;13.10;;;4.30;66.00;;;;;;4995274;28;20797;-82
2022/01/20 08:22:18;;;;;;;22.77;13.40;;;4.40;65.90;;;;;;4994827;28;20307;-82
2022/01/20 08:24:49;;;;;;;20.93;13.13;;;4.60;65.80;;;;;;5012705;28;20022;-82
2022/01/20 08:27:17;;;;;;;19.07;11.87;;;4.60;65.50;;;;;;4995270;28;20029;-82
2022/01/20 08:29:42;;;;;;;24.23;13.87;;;4.70;65.50;;;;;;4984194;28;20086;-82
2022/01/20 08:32:08;;;;;;;25.37;13.70;;;4.60;65.30;;;;;;4983795;28;20062;-82
2022/01/20 08:34:34;;;;;;;22.57;12.63;;;4.50;65.30;;;;;;5012388;28;20017;-82
2022/01/20 08:36:59;;;;;;;20.23;11.97;;;4.50;65.30;;;;;;4994793;28;20033;-82
2022/01/20 08:41:53;;;;;;;22.27;13.47;;;4.40;65.60;;;;;;4997457;28;20571;-82
2022/01/20 08:44:19;;;;;;;24.77;12.70;;;4.30;65.90;;;;;;4995497;28;20116;-82
2022/01/20 08:46:48;;;;;;;22.53;13.27;;;4.30;65.60;;;;;;5007326;28;20032;-82
2022/01/20 08:49:15;;;;;;;27.17;13.23;;;4.30;65.90;;;;;;5002078;28;20026;-82
2022/01/20 08:51:41;;;;;;;24.03;12.73;;;4.30;65.80;;;;;;4994083;28;20484;-82
2022/01/20 08:54:07;;;;;;;25.03;12.63;;;4.30;66.00;;;;;;4988938;28;20054;-82
2022/01/20 08:56:36;;;;;;;30.50;15.23;;;4.40;66.00;;;;;;4988173;28;20092;-82
2022/01/20 08:59:05;;;;;;;37.03;18.47;;;4.40;66.00;;;;;;4980133;28;20057;-82
2022/01/20 09:01:31;;;;;;;30.17;17.23;;;4.40;66.20;;;;;;5003921;28;20412;-82
2022/01/20 09:03:57;;;;;;;27.47;14.00;;;4.40;66.10;;;;;;4997961;28;20022;-82
2022/01/20 09:06:23;;;;;;;22.67;13.37;;;4.40;66.00;;;;;;4998864;28;20033;-82
2022/01/20 09:08:49;;;;;;;22.03;13.70;;;4.30;66.20;;;;;;5003359;28;20084;-82
2022/01/20 09:11:24;;;;;;;24.83;13.40;;;4.30;66.80;;;;;;5005013;28;20025;-82
2022/01/20 09:16:37;;;;;;;25.73;14.60;;;4.40;66.50;;;;;;5015884;28;20116;-82
2022/01/20 09:19:04;;;;;;;31.90;15.97;;;4.40;66.50;;;;;;5015649;28;20053;-82
2022/01/20 09:21:30;;;;;;;34.20;17.47;;;4.40;66.60;;;;;;4998089;28;20499;-82
2022/01/20 09:23:56;;;;;;;29.73;16.97;;;4.40;66.60;;;;;;4998268;28;20021;-82
2022/01/20 09:26:23;;;;;;;24.10;14.30;;;4.40;66.60;;;;;;4997954;28;20022;-83
2022/01/20 09:28:48;;;;;;;25.93;13.57;;;4.40;66.70;;;;;;5004639;28;20116;-82
2022/01/20 09:31:14;;;;;;;26.93;13.40;;;4.40;66.70;;;;;;5002920;28;20398;-82
2022/01/20 09:33:40;;;;;;;23.53;13.03;;;4.40;66.90;;;;;;4998057;28;20477;-83
2022/01/20 09:36:09;;;;;;;23.60;13.13;;;4.40;66.80;;;;;;4998184;28;20037;-82
2022/01/20 09:38:35;;;;;;;24.93;13.67;;;4.40;66.90;;;;;;4997636;28;20034;-82
2022/01/20 09:41:02;;;;;;;27.93;14.30;;;4.30;67.20;;;;;;5007531;28;20025;-82
2022/01/20 09:43:28;;;;;;;26.83;14.93;;;4.30;67.20;;;;;;5008748;28;20160;-83
2022/01/20 09:45:55;;;;;;;40.47;17.23;;;4.30;67.40;;;;;;5011460;28;20505;-83
2022/01/20 09:48:22;;;;;;;36.40;18.17;;;4.30;67.50;;;;;;4985670;28;20145;-83
2022/01/20 09:50:49;;;;;;;29.23;16.57;;;4.40;67.50;;;;;;4998112;28;20448;-83
2022/01/20 09:53:15;;;;;;;38.27;17.03;;;4.40;67.50;;;;;;4997630;28;20026;-82
2022/01/20 09:55:42;;;;;;;28.03;16.37;;;4.40;67.60;;;;;;5014846;28;20014;-82
2022/01/20 09:58:09;;;;;;;33.90;15.47;;;4.40;67.50;;;;;;4997605;28;20105;-83
2022/01/20 10:00:37;;;;;;;29.37;15.50;;;4.40;67.70;;;;;;4994692;28;20030;-83
2022/01/20 10:03:06;;;;;;;24.13;13.70;;;4.40;67.70;;;;;;5000118;28;20532;-82
2022/01/20 10:05:37;;;;;;;28.70;14.03;;;4.50;67.90;;;;;;4996198;28;20145;-83
2022/01/20 10:08:14;;;;;;;24.83;14.40;;;4.50;68.00;;;;;;5008424;28;20034;-82
2022/01/20 10:10:59;;;;;;;30.00;15.27;;;4.50;68.00;;;;;;4994301;28;20022;-82
2022/01/20 10:13:29;;;;;;;27.30;14.73;;;4.40;68.10;;;;;;4997537;28;20460;-82
2022/01/20 10:15:59;;;;;;;43.93;16.37;;;4.40;68.20;;;;;;4988506;28;20046;-83
2022/01/20 10:18:26;;;;;;;26.13;16.50;;;4.40;68.20;;;;;;4998201;28;20439;-82
2022/01/20 10:21:01;;;;;;;21.90;15.17;;;4.40;68.20;;;;;;4990167;28;20041;-83
2022/01/20 10:23:29;;;;;;;28.60;15.03;;;4.40;68.80;;;;;;5014423;28;20029;-83
2022/01/20 10:26:16;;;;;;;23.10;15.57;;;4.50;68.30;;;;;;4999812;28;20046;-83
2022/01/20 10:28:46;;;;;;;25.43;15.90;;;4.50;68.50;;;;;;5011785;28;20095;-82
2022/01/20 10:31:12;;;;;;;40.47;17.17;;;4.60;68.40;;;;;;5005454;28;20121;-83
2022/01/20 10:33:43;;;;;;;24.23;16.33;;;4.60;68.30;;;;;;5004958;28;20453;-83
2022/01/20 10:36:13;;;;;;;36.97;16.93;;;4.70;68.40;;;;;;4996683;28;20534;-82
2022/01/20 10:38:59;;;;;;;30.60;16.23;;;4.70;68.40;;;;;;4992669;28;20032;-82
2022/01/20 10:41:34;;;;;;;27.10;17.90;;;4.70;68.50;;;;;;4993181;28;20512;-82
2022/01/20 10:44:02;;;;;;;33.80;16.77;;;4.70;68.60;;;;;;4990489;28;20018;-82
2022/01/20 10:46:27;;;;;;;29.53;17.43;;;4.70;68.60;;;;;;4992682;28;20053;-82
2022/01/20 10:49:00;;;;;;;31.13;17.87;;;4.80;68.60;;;;;;4995577;28;20099;-83
2022/01/20 10:51:27;;;;;;;38.22;18.27;;;4.70;68.70;;;;;;5014017;28;20435;-82
2022/01/20 10:54:02;;;;;;;29.10;19.40;;;4.70;68.70;;;;;;4994420;28;20096;-82
2022/01/20 10:56:28;;;;;;;31.00;19.00;;;4.70;68.90;;;;;;4977416;28;20076;-83
2022/01/20 10:58:54;;;;;;;35.53;19.30;;;4.70;68.90;;;;;;4980874;28;20489;-83
2022/01/20 11:01:20;;;;;;;27.30;17.70;;;4.70;69.00;;;;;;4992388;28;20058;-83
2022/01/20 11:03:46;;;;;;;33.03;19.20;;;4.70;69.00;;;;;;4992264;28;20390;-83
2022/01/20 11:06:11;;;;;;;26.30;18.70;;;4.60;69.20;;;;;;5014025;28;20049;-82
2022/01/20 11:08:40;;;;;;;31.10;18.77;;;4.60;69.30;;;;;;5004245;28;20022;-82
2022/01/20 11:11:06;;;;;;;26.10;18.13;;;4.60;69.30;;;;;;4993623;28;20054;-83
2022/01/20 11:13:32;;;;;;;27.03;18.00;;;4.70;69.40;;;;;;5005962;28;20061;-82
2022/01/20 11:15:57;;;;;;;29.33;17.10;;;4.70;69.50;;;;;;4988590;28;20046;-82
2022/01/20 11:18:27;;;;;;;32.07;19.20;;;4.70;69.50;;;;;;4996144;28;20049;-82
2022/01/20 11:20:54;;;;;;;29.57;19.50;;;4.80;69.40;;;;;;4995852;28;20026;-82
2022/01/20 11:23:20;;;;;;;27.80;19.20;;;4.80;69.40;;;;;;4996170;28;20029;-83
2022/01/20 11:25:46;;;;;;;35.37;21.83;;;4.80;69.40;;;;;;4995884;28;20022;-82
2022/01/20 11:28:15;;;;;;;38.40;20.43;;;4.80;69.50;;;;;;4992154;28;20022;-82
2022/01/20 11:30:56;;;;;;;37.27;21.37;;;4.80;69.40;;;;;;4995191;28;20026;-82
2022/01/20 11:33:35;;;;;;;35.57;21.40;;;4.90;69.60;;;;;;5009671;28;20022;-83
2022/01/20 11:36:02;;;;;;;45.00;23.43;;;4.90;69.60;;;;;;4989930;28;20030;-83
2022/01/20 11:38:45;;;;;;;41.63;25.50;;;4.90;69.50;;;;;;4992291;28;20037;-82
2022/01/20 11:41:13;;;;;;;;;;;4.90;69.50;;;;;;4997758;28;20018;-83
2022/01/20 11:43:43;;;;;;;37.70;22.43;;;4.90;69.50;;;;;;5013136;28;20325;-82
2022/01/20 11:46:20;;;;;;;35.93;22.37;;;4.90;69.30;;;;;;5012674;28;20026;-83
2022/01/20 11:48:55;;;;;;;31.47;22.30;;;4.90;69.70;;;;;;4996623;28;20032;-83
2022/01/20 11:51:34;;;;;;;39.07;23.07;;;4.90;69.70;;;;;;5010643;28;20018;-83
2022/01/20 11:54:03;;;;;;;40.77;23.67;;;4.90;69.80;;;;;;4995825;28;20067;-83
2022/01/20 11:56:36;;;;;;;40.67;25.07;;;4.90;69.90;;;;;;4995842;28;20400;-82
2022/01/20 11:59:06;;;;;;;;;;;4.90;70.00;;;;;;4995972;28;20022;-82
2022/01/20 12:01:48;;;;;;;31.43;21.90;;;4.90;69.80;;;;;;4995806;28;19948;-82
2022/01/20 12:04:15;;;;;;;39.53;24.47;;;4.90;69.80;;;;;;4995584;28;20018;-82
2022/01/20 12:06:44;;;;;;;49.33;26.20;;;4.80;69.80;;;;;;4995821;28;20371;-82
2022/01/20 12:09:09;;;;;;;35.87;23.03;;;4.90;69.90;;;;;;4995602;28;20034;-83
2022/01/20 12:11:42;;;;;;;40.07;23.73;;;4.90;70.20;;;;;;4995847;28;20049;-83
2022/01/20 12:14:09;;;;;;;47.80;23.63;;;4.90;70.30;;;;;;5013441;28;20439;-82
2022/01/20 12:16:36;;;;;;;40.07;24.70;;;4.90;70.20;;;;;;5013297;28;20060;-82
2022/01/20 12:19:04;;;;;;;44.17;25.20;;;4.80;70.30;;;;;;5013303;28;20026;-82
2022/01/20 12:21:34;;;;;;;41.93;24.43;;;4.80;70.70;;;;;;4992329;28;20026;-82
2022/01/20 12:24:00;;;;;;;45.80;25.17;;;4.90;70.70;;;;;;4976912;28;20049;-81
2022/01/20 12:26:26;;;;;;;41.23;25.60;;;4.90;70.50;;;;;;4976219;28;20058;-82
2022/01/20 12:29:07;;;;;;;42.03;27.50;;;5.00;70.50;;;;;;4993540;28;20481;-82
2022/01/20 12:31:44;;;;;;;40.20;24.40;;;4.90;70.30;;;;;;4993560;28;20039;-81
2022/01/20 12:34:13;;;;;;;34.10;25.47;;;5.00;70.40;;;;;;4978585;28;20030;-82
2022/01/20 12:36:39;;;;;;;42.50;29.10;;;5.00;70.50;;;;;;4997480;28;20030;-82
2022/01/20 12:39:06;;;;;;;51.67;30.50;;;5.10;70.60;;;;;;4992092;28;20026;-83
2022/01/20 12:41:32;;;;;;;51.33;29.83;;;5.20;70.60;;;;;;4997458;28;20474;-83
2022/01/20 12:44:09;;;;;;;43.63;28.93;;;5.20;70.40;;;;;;4996096;28;20030;-82
2022/01/20 12:46:41;;;;;;;60.03;30.67;;;5.20;70.90;;;;;;4996075;28;20023;-83
2022/01/20 12:49:19;;;;;;;53.75;28.80;;;5.20;70.40;;;;;;4998038;28;20026;-83
2022/01/20 12:51:51;;;;;;;41.03;25.60;;;5.20;70.60;;;;;;4997400;28;20039;-83
2022/01/20 12:54:32;;;;;;;38.60;27.27;;;5.20;70.70;;;;;;4997151;28;20027;-83
2022/01/20 12:57:00;;;;;;;39.00;25.70;;;5.10;70.60;;;;;;5013176;28;20450;-82
2022/01/20 12:59:57;;;;;;;38.03;26.17;;;5.10;70.90;;;;;;4997924;28;20038;-83
2022/01/20 13:02:23;;;;;;;40.77;25.43;;;5.10;70.90;;;;;;4978713;28;20030;-83
2022/01/20 13:04:56;;;;;;;44.50;29.40;;;5.00;70.90;;;;;;4979550;28;20045;-83
2022/01/20 13:07:22;;;;;;;44.80;28.40;;;5.10;70.90;;;;;;5009528;28;20069;-83
2022/01/20 13:10:00;;;;;;;39.47;26.63;;;5.10;71.10;;;;;;5001246;28;20022;-83
2022/01/20 13:12:39;;;;;;;33.80;21.97;;;5.10;71.30;;;;;;4993366;28;20499;-83
2022/01/20 13:15:26;;;;;;;47.50;28.33;;;5.10;71.50;;;;;;4998091;28;20433;-83
2022/01/20 13:18:06;;;;;;;47.03;29.73;;;5.40;71.80;;;;;;4997917;28;20519;-83
2022/01/20 13:20:32;;;;;;;45.43;28.40;;;5.50;70.90;;;;;;4994538;28;20054;-83
2022/01/20 13:23:08;;;;;;;49.13;32.50;;;5.50;70.70;;;;;;4978946;28;20026;-83
2022/01/20 13:25:39;;;;;;;48.70;29.77;;;5.50;70.80;;;;;;4992505;28;20550;-84
2022/01/20 13:28:08;;;;;;;48.80;30.93;;;5.50;70.90;;;;;;4997797;28;20393;-84
2022/01/20 13:30:48;;;;;;;40.83;28.17;;;5.50;71.00;;;;;;5000394;28;20041;-84
2022/01/20 13:33:16;;;;;;;38.97;28.00;;;5.40;71.00;;;;;;4998539;28;20028;-83
2022/01/20 13:35:44;;;;;;;37.63;26.17;;;5.50;71.10;;;;;;5006222;28;20030;-84
2022/01/20 13:38:10;;;;;;;29.67;18.97;;;5.60;71.00;;;;;;5013220;28;20564;-83
2022/01/20 13:40:38;;;;;;;30.77;20.70;;;5.60;70.80;;;;;;5015652;28;20025;-83
2022/01/20 13:45:41;;;;;;;26.17;17.57;;;5.70;70.70;;;;;;5015486;28;20026;-84
2022/01/20 13:48:08;;;;;;;28.40;18.53;;;5.70;70.70;;;;;;4987776;28;20473;-84
2022/01/20 13:50:43;;;;;;;29.40;19.77;;;5.70;70.70;;;;;;4997693;28;20034;-84
2022/01/20 13:53:18;;;;;;;27.93;19.90;;;5.70;70.80;;;;;;4997964;28;20485;-83
2022/01/20 13:55:46;;;;;;;26.40;19.97;;;5.80;70.90;;;;;;4996302;28;20029;-84
2022/01/20 13:58:25;;;;;;;32.20;19.87;;;5.80;70.80;;;;;;4978547;28;20481;-84